Time;durP1;ratioP1;P1;durP2;ratioP2;P2;SDS_P1;SDS_P2;PMS_P1;PMS_P2;Temp;Humidity;BMP_temperature;BMP_pressure;BME280_temperature;BME280_humidity;BME280_pressure;Samples;Min_cycle;Max_cycle;Signal;HPM_P1;HPM_P2
2023/01/29 00:02:15;;;;;;;25.63;17.67;;;3.10;99.90;;;;;;5095144;28;20143;-36
2023/01/29 00:04:47;;;;;;;36.25;23.15;;;3.10;99.90;;;;;;5081750;28;20048;-36
2023/01/29 00:07:19;;;;;;;23.95;15.80;;;3.10;99.90;;;;;;5092393;28;20048;-36
2023/01/29 00:09:46;;;;;;;24.00;16.73;;;3.10;99.90;;;;;;5087246;28;20051;-36
2023/01/29 00:12:12;;;;;;;27.00;16.58;;;3.10;99.90;;;;;;5063713;28;20063;-36
2023/01/29 00:14:37;;;;;;;21.23;15.18;;;3.10;99.90;;;;;;5105306;28;20054;-35
2023/01/29 00:17:03;;;;;;;24.50;16.83;;;3.10;99.90;;;;;;5076634;28;20032;-36
2023/01/29 00:19:29;;;;;;;24.27;16.23;;;3.10;99.90;;;;;;5074569;28;20036;-36
2023/01/29 00:21:55;;;;;;;31.38;19.15;;;3.10;99.90;;;;;;5074813;28;20220;-36
2023/01/29 00:24:21;;;;;;;27.55;17.83;;;3.10;99.90;;;;;;5058212;28;20484;-36
2023/01/29 00:26:48;;;;;;;26.60;18.77;;;3.10;99.90;;;;;;5074998;28;20032;-36
2023/01/29 00:29:14;;;;;;;27.23;20.05;;;3.10;99.90;;;;;;5074758;28;20036;-36
2023/01/29 00:31:43;;;;;;;25.67;17.83;;;3.00;99.90;;;;;;5077400;28;20156;-36
2023/01/29 00:34:09;;;;;;;25.23;17.10;;;3.10;99.90;;;;;;5094728;28;20040;-36
2023/01/29 00:36:35;;;;;;;27.95;19.27;;;3.00;99.90;;;;;;5095009;28;20039;-36
2023/01/29 00:39:09;;;;;;;22.10;16.08;;;3.00;99.90;;;;;;5094661;28;20043;-36
2023/01/29 00:47:29;;;;;;;22.08;15.70;;;3.10;99.90;;;;;;5092205;28;20123;-36
2023/01/29 00:49:54;;;;;;;23.25;15.43;;;3.10;99.90;;;;;;5092166;28;20044;-36
2023/01/29 00:52:22;;;;;;;23.02;15.73;;;3.10;99.90;;;;;;5074486;28;20044;-36
2023/01/29 00:54:48;;;;;;;23.15;15.23;;;3.10;99.90;;;;;;5074193;28;20046;-36
2023/01/29 00:57:14;;;;;;;22.70;14.68;;;3.10;99.90;;;;;;5074393;28;20130;-36
2023/01/29 00:59:40;;;;;;;21.85;16.45;;;3.10;99.90;;;;;;5074414;28;20119;-36
2023/01/29 01:04:50;;;;;;;;;;;3.10;99.90;;;;;;5103044;28;20404;-36
2023/01/29 01:07:15;;;;;;;24.13;16.13;;;3.10;99.90;;;;;;5073805;28;19920;-36
2023/01/29 01:12:26;;;;;;;21.02;15.57;;;3.20;99.90;;;;;;5112298;28;20570;-36
2023/01/29 01:14:52;;;;;;;20.10;14.65;;;3.20;99.90;;;;;;5093728;28;20111;-36
2023/01/29 01:17:18;;;;;;;26.52;17.83;;;3.20;99.90;;;;;;5077145;28;20142;-36
2023/01/29 01:19:43;;;;;;;23.50;15.80;;;3.20;99.90;;;;;;5091693;28;20093;-36
2023/01/29 01:22:09;;;;;;;22.35;16.15;;;3.20;99.90;;;;;;5073913;28;20484;-36
2023/01/29 01:24:36;;;;;;;24.98;15.45;;;3.20;99.90;;;;;;5074355;28;20122;-36
2023/01/29 01:27:02;;;;;;;21.88;15.57;;;3.20;99.90;;;;;;5093897;28;20032;-36
2023/01/29 01:29:28;;;;;;;20.23;15.20;;;3.20;99.90;;;;;;5093773;28;20114;-35
2023/01/29 01:31:53;;;;;;;25.83;16.30;;;3.20;99.90;;;;;;5094241;28;20067;-36
2023/01/29 01:34:20;;;;;;;23.33;15.65;;;3.20;99.90;;;;;;5093792;28;20040;-36
2023/01/29 01:36:47;;;;;;;21.95;15.57;;;3.20;99.90;;;;;;5093574;28;20071;-36
2023/01/29 01:39:13;;;;;;;21.85;15.23;;;3.20;99.90;;;;;;5094250;28;20449;-36
2023/01/29 01:41:39;;;;;;;23.52;16.42;;;3.20;99.90;;;;;;5079283;28;20047;-36
2023/01/29 01:44:05;;;;;;;20.67;15.32;;;3.20;99.90;;;;;;5057559;28;20036;-36
2023/01/29 01:46:34;;;;;;;23.30;15.45;;;3.20;99.90;;;;;;5061741;28;20445;-37
2023/01/29 01:49:23;;;;;;;24.50;15.65;;;3.20;99.90;;;;;;5084287;28;20032;-36
2023/01/29 01:51:51;;;;;;;20.85;14.85;;;3.20;99.90;;;;;;5054318;28;20068;-37
2023/01/29 01:54:26;;;;;;;23.40;15.88;;;3.20;99.90;;;;;;5056652;28;20089;-37
2023/01/29 01:57:03;;;;;;;23.60;15.63;;;3.20;99.90;;;;;;5083719;28;20163;-37
2023/01/29 01:59:32;;;;;;;20.33;15.35;;;3.20;99.90;;;;;;5064842;28;20115;-38
2023/01/29 02:01:58;;;;;;;20.25;14.57;;;3.20;99.90;;;;;;5054515;28;20504;-37
2023/01/29 02:09:50;;;;;;;24.35;16.23;;;3.20;99.90;;;;;;5082369;28;20111;-36
2023/01/29 02:12:16;;;;;;;19.83;15.07;;;3.20;99.90;;;;;;5055277;28;20029;-36
2023/01/29 02:14:43;;;;;;;22.83;15.73;;;3.20;99.90;;;;;;5070518;28;20048;-36
2023/01/29 02:17:12;;;;;;;23.35;16.80;;;3.20;99.90;;;;;;5064509;28;20028;-36
2023/01/29 02:20:00;;;;;;;21.77;16.08;;;3.20;99.90;;;;;;5065322;28;20429;-36
2023/01/29 02:22:55;;;;;;;25.27;16.58;;;3.20;99.90;;;;;;5074378;28;20430;-36
2023/01/29 02:25:39;;;;;;;21.58;15.60;;;3.20;99.90;;;;;;5033014;28;20087;-37
2023/01/29 02:28:20;;;;;;;22.75;16.20;;;3.20;99.90;;;;;;5064926;28;20362;-38
2023/01/29 02:31:04;;;;;;;22.83;15.85;;;3.20;99.90;;;;;;5080645;28;20423;-38
2023/01/29 02:33:45;;;;;;;21.90;15.77;;;3.20;99.90;;;;;;5075012;28;20040;-39
2023/01/29 02:36:32;;;;;;;20.95;15.65;;;3.20;99.90;;;;;;5066026;28;20048;-39
2023/01/29 02:39:30;;;;;;;25.33;15.88;;;3.20;99.90;;;;;;5062288;28;20040;-38
2023/01/29 02:41:59;;;;;;;26.88;16.52;;;3.20;99.90;;;;;;5064663;28;20033;-38
2023/01/29 02:44:39;;;;;;;24.92;16.13;;;3.20;99.90;;;;;;5057185;28;20036;-38
2023/01/29 02:47:30;;;;;;;18.75;14.45;;;3.20;99.90;;;;;;5081445;28;20166;-38
2023/01/29 02:50:03;;;;;;;24.83;17.70;;;3.20;99.90;;;;;;5076295;28;20060;-36
2023/01/29 02:52:49;;;;;;;;;;;3.20;99.90;;;;;;5070164;28;20119;-36
2023/01/29 02:55:18;;;;;;;21.83;15.50;;;3.20;99.90;;;;;;5088064;28;19928;-35
2023/01/29 02:57:47;;;;;;;24.10;16.88;;;3.20;99.90;;;;;;5068349;28;20473;-35
2023/01/29 03:00:42;;;;;;;21.48;15.25;;;3.20;99.90;;;;;;5065083;28;20078;-35
2023/01/29 03:03:11;;;;;;;22.92;16.67;;;3.20;99.90;;;;;;5069989;28;20040;-35
2023/01/29 03:06:27;;;;;;;25.40;15.82;;;3.20;99.90;;;;;;5063960;28;20516;-35
2023/01/29 03:09:00;;;;;;;22.80;16.73;;;3.20;99.90;;;;;;5054998;28;20139;-37
2023/01/29 03:11:35;;;;;;;27.10;17.58;;;3.20;99.90;;;;;;5049294;28;20039;-38
2023/01/29 03:14:23;;;;;;;21.35;15.63;;;3.20;99.90;;;;;;5057524;28;20052;-35
2023/01/29 03:16:55;;;;;;;23.38;17.00;;;3.20;99.90;;;;;;5080417;22;20294;-35
2023/01/29 03:22:22;;;;;;;24.85;18.23;;;3.20;99.90;;;;;;5088836;22;20047;-37
2023/01/29 03:33:51;;;;;;;22.77;16.65;;;3.20;99.90;;;;;;5093045;28;20427;-35
2023/01/29 03:36:44;;;;;;;24.38;17.02;;;3.20;99.90;;;;;;5074317;28;20032;-35
2023/01/29 03:39:12;;;;;;;23.52;15.95;;;3.20;99.90;;;;;;5070699;28;20038;-35
2023/01/29 03:42:20;;;;;;;26.35;18.10;;;3.30;99.90;;;;;;5075020;28;20550;-34
2023/01/29 03:45:07;;;;;;;26.98;19.77;;;3.30;99.90;;;;;;5071668;28;20058;-35
2023/01/29 03:47:49;;;;;;;25.73;18.02;;;3.20;99.90;;;;;;5071211;28;20036;-35
2023/01/29 03:50:35;;;;;;;27.02;19.30;;;3.20;99.90;;;;;;5065911;28;20686;-35
2023/01/29 03:53:42;;;;;;;26.65;17.90;;;3.20;99.90;;;;;;5072938;28;20098;-35
2023/01/29 03:56:35;;;;;;;26.75;17.55;;;3.20;99.90;;;;;;5102400;28;20041;-35
2023/01/29 03:59:14;;;;;;;26.42;18.05;;;3.20;99.90;;;;;;5064637;28;20467;-35
2023/01/29 04:01:50;;;;;;;26.42;18.33;;;3.20;99.90;;;;;;5069995;28;20052;-35
2023/01/29 04:04:35;;;;;;;27.27;19.63;;;3.20;99.90;;;;;;5093080;28;20341;-35
2023/01/29 04:07:16;;;;;;;27.60;18.13;;;3.30;99.90;;;;;;5074081;28;20036;-35
2023/01/29 04:09:58;;;;;;;27.67;19.05;;;3.20;99.90;;;;;;5070684;28;20036;-35
2023/01/29 04:12:48;;;;;;;24.90;18.48;;;3.30;99.90;;;;;;5073153;28;20042;-35
2023/01/29 04:15:16;;;;;;;23.17;17.60;;;3.30;99.90;;;;;;5071185;28;20053;-35
2023/01/29 04:17:48;;;;;;;26.27;18.00;;;3.30;99.90;;;;;;5074244;28;20115;-35
2023/01/29 04:20:14;;;;;;;25.75;17.88;;;3.30;99.90;;;;;;5068499;28;20066;-35
2023/01/29 04:22:47;;;;;;;27.15;18.60;;;3.30;99.90;;;;;;5058281;28;20043;-36
2023/01/29 04:25:25;;;;;;;26.60;18.45;;;3.30;99.90;;;;;;5074005;28;20128;-36
2023/01/29 04:28:10;;;;;;;24.80;18.60;;;3.30;99.90;;;;;;5071156;28;20052;-36
2023/01/29 04:30:52;;;;;;;26.88;18.95;;;3.30;99.90;;;;;;5068808;28;20043;-36
2023/01/29 04:33:39;;;;;;;27.15;19.60;;;3.40;99.90;;;;;;5064018;28;20044;-36
2023/01/29 04:36:12;;;;;;;27.48;19.77;;;3.40;99.90;;;;;;5091897;28;20044;-36
2023/01/29 04:39:07;;;;;;;28.80;18.77;;;3.30;99.90;;;;;;5074346;28;20047;-36
2023/01/29 04:41:36;;;;;;;28.83;19.33;;;3.40;99.90;;;;;;5062037;28;20282;-36
2023/01/29 04:44:14;;;;;;;26.60;18.35;;;3.40;99.90;;;;;;5073603;28;20044;-36
2023/01/29 04:46:56;;;;;;;29.85;20.50;;;3.40;99.90;;;;;;5074262;28;20082;-35
2023/01/29 04:49:45;;;;;;;28.58;20.10;;;3.40;99.90;;;;;;5074770;28;20040;-36
2023/01/29 04:52:33;;;;;;;27.45;20.50;;;3.40;99.90;;;;;;5073543;28;20044;-36
2023/01/29 04:55:19;;;;;;;28.20;20.23;;;3.40;99.90;;;;;;5107780;22;20148;-36
2023/01/29 04:57:57;;;;;;;27.98;20.10;;;3.50;99.90;;;;;;5088181;28;20086;-36
2023/01/29 05:00:28;;;;;;;26.40;18.77;;;3.50;99.90;;;;;;5090076;28;20158;-36
2023/01/29 05:02:56;;;;;;;29.90;20.48;;;3.50;99.90;;;;;;5090349;28;20388;-36
2023/01/29 05:05:22;;;;;;;27.48;20.65;;;3.50;99.90;;;;;;5077566;28;20048;-36
2023/01/29 05:07:48;;;;;;;28.05;20.20;;;3.50;99.90;;;;;;5083154;28;20036;-36
2023/01/29 05:10:17;;;;;;;28.27;19.92;;;3.50;99.90;;;;;;5089395;28;20046;-36
2023/01/29 05:12:47;;;;;;;27.73;19.98;;;3.50;99.90;;;;;;5083777;28;20039;-36
2023/01/29 05:15:18;;;;;;;29.70;20.52;;;3.50;99.90;;;;;;5086637;28;20127;-36
2023/01/29 05:17:44;;;;;;;30.92;21.38;;;3.50;99.90;;;;;;5086266;28;20472;-36
2023/01/29 05:20:11;;;;;;;27.63;19.98;;;3.60;99.90;;;;;;5080277;28;20082;-37
2023/01/29 05:22:40;;;;;;;28.52;20.65;;;3.50;99.90;;;;;;5096823;28;20061;-37
2023/01/29 05:25:35;;;;;;;28.92;20.58;;;3.60;99.90;;;;;;5095491;28;20123;-37
2023/01/29 05:28:04;;;;;;;29.75;20.92;;;3.50;99.90;;;;;;5072295;28;20047;-37
2023/01/29 05:30:31;;;;;;;29.63;21.50;;;3.60;99.90;;;;;;5086683;28;20048;-36
2023/01/29 05:32:57;;;;;;;32.08;21.92;;;3.60;99.90;;;;;;5085609;28;20526;-36
2023/01/29 05:35:23;;;;;;;29.55;21.90;;;3.60;99.90;;;;;;5085722;28;20029;-37
2023/01/29 05:37:49;;;;;;;29.67;21.80;;;3.60;99.90;;;;;;5079595;28;20037;-37
2023/01/29 05:40:15;;;;;;;27.48;20.85;;;3.60;99.90;;;;;;5087601;28;20101;-37
2023/01/29 05:42:40;;;;;;;28.48;21.67;;;3.60;99.90;;;;;;5090973;28;20116;-37
2023/01/29 05:45:07;;;;;;;32.42;22.73;;;3.60;99.90;;;;;;5089647;28;20484;-36
2023/01/29 05:47:33;;;;;;;29.63;21.65;;;3.60;99.90;;;;;;5093015;28;20413;-37
2023/01/29 05:49:58;;;;;;;29.63;22.35;;;3.60;99.90;;;;;;5087252;28;20032;-36
2023/01/29 05:52:24;;;;;;;30.50;22.70;;;3.60;99.90;;;;;;5083904;28;20194;-37
2023/01/29 05:54:50;;;;;;;28.33;21.90;;;3.60;99.90;;;;;;5082757;28;20032;-36
2023/01/29 05:57:15;;;;;;;27.08;21.58;;;3.60;99.90;;;;;;5094976;28;20044;-37
2023/01/29 05:59:41;;;;;;;33.30;22.92;;;3.60;99.90;;;;;;5083696;28;20492;-36
2023/01/29 06:02:07;;;;;;;31.77;21.92;;;3.60;99.90;;;;;;5089852;28;20040;-37
2023/01/29 06:04:33;;;;;;;32.30;23.23;;;3.60;99.90;;;;;;5087460;28;20123;-37
2023/01/29 06:07:00;;;;;;;30.38;22.23;;;3.60;99.90;;;;;;5087972;28;20036;-37
2023/01/29 06:09:25;;;;;;;30.80;22.50;;;3.60;99.90;;;;;;5083024;28;20446;-37
2023/01/29 06:11:51;;;;;;;28.35;20.83;;;3.60;99.90;;;;;;5079576;28;20067;-37
2023/01/29 06:14:17;;;;;;;32.10;22.65;;;3.60;99.90;;;;;;5090393;28;20035;-37
2023/01/29 06:16:42;;;;;;;30.42;21.98;;;3.60;99.90;;;;;;5084038;28;20373;-37
2023/01/29 06:19:08;;;;;;;30.98;21.88;;;3.60;99.90;;;;;;5097045;28;20035;-37
2023/01/29 06:21:34;;;;;;;32.05;22.98;;;3.60;99.90;;;;;;5087145;28;20077;-37
2023/01/29 06:24:00;;;;;;;32.00;22.73;;;3.50;99.90;;;;;;5088804;28;20127;-37
2023/01/29 06:26:25;;;;;;;30.00;22.58;;;3.50;99.90;;;;;;5108232;22;20039;-35
2023/01/29 06:28:51;;;;;;;34.78;23.85;;;3.50;99.90;;;;;;5098985;28;20507;-35
2023/01/29 06:31:17;;;;;;;31.08;22.80;;;3.40;99.90;;;;;;5095696;28;20549;-36
2023/01/29 06:33:43;;;;;;;31.92;23.40;;;3.40;99.90;;;;;;5092020;28;20036;-36
2023/01/29 06:36:09;;;;;;;32.00;22.33;;;3.40;99.90;;;;;;5091198;28;20043;-37
2023/01/29 06:38:35;;;;;;;29.42;22.90;;;3.40;99.90;;;;;;5095762;28;20066;-36
2023/01/29 06:41:08;;;;;;;55.55;32.63;;;3.40;99.90;;;;;;5076350;28;20040;-37
2023/01/29 06:43:34;;;;;;;54.55;32.72;;;3.40;99.90;;;;;;5095375;28;20034;-37
2023/01/29 06:46:00;;;;;;;48.33;29.77;;;3.40;99.90;;;;;;5087584;28;20040;-37
2023/01/29 06:48:25;;;;;;;61.60;35.42;;;3.40;99.90;;;;;;5095906;28;20415;-37
2023/01/29 06:50:53;;;;;;;33.95;25.40;;;3.40;99.90;;;;;;5113825;28;20042;-37
2023/01/29 06:53:20;;;;;;;45.13;29.60;;;3.40;99.90;;;;;;5095595;28;20039;-37
2023/01/29 06:55:52;;;;;;;37.97;26.52;;;3.40;99.90;;;;;;5094451;28;20035;-37
2023/01/29 06:58:20;;;;;;;78.97;43.75;;;3.40;99.90;;;;;;5093782;28;20088;-37
2023/01/29 07:00:46;;;;;;;34.10;24.33;;;3.40;99.90;;;;;;5094159;28;20422;-37
2023/01/29 07:03:12;;;;;;;34.60;25.85;;;3.40;99.90;;;;;;5093066;28;20039;-37
2023/01/29 07:05:38;;;;;;;35.15;26.15;;;3.40;99.90;;;;;;5085233;28;20047;-36
2023/01/29 07:08:04;;;;;;;39.85;29.48;;;3.40;99.90;;;;;;5085952;28;20040;-37
2023/01/29 07:10:30;;;;;;;37.67;30.67;;;3.40;99.90;;;;;;5095775;28;20384;-37
2023/01/29 07:12:58;;;;;;;36.17;26.70;;;3.40;99.90;;;;;;5094021;28;20039;-37
2023/01/29 07:15:24;;;;;;;35.72;26.48;;;3.40;99.90;;;;;;5087621;28;20040;-37
2023/01/29 07:18:01;;;;;;;39.53;29.45;;;3.40;99.90;;;;;;5088793;28;20028;-37
2023/01/29 07:20:28;;;;;;;40.83;29.60;;;3.40;99.90;;;;;;5084076;28;20523;-37
2023/01/29 07:22:55;;;;;;;36.40;26.95;;;3.40;99.90;;;;;;5090352;28;20034;-37
2023/01/29 07:25:22;;;;;;;35.92;25.90;;;3.40;99.90;;;;;;5082476;28;20039;-36
2023/01/29 07:27:48;;;;;;;33.30;25.23;;;3.40;99.90;;;;;;5095234;28;20040;-38
2023/01/29 07:30:15;;;;;;;32.22;24.02;;;3.40;99.90;;;;;;5094786;28;20040;-36
2023/01/29 07:32:41;;;;;;;34.35;24.55;;;3.40;99.90;;;;;;5094601;28;20031;-36
2023/01/29 07:35:07;;;;;;;33.95;23.58;;;3.40;99.90;;;;;;5093124;27;20036;-37
2023/01/29 07:37:33;;;;;;;33.78;24.45;;;3.40;99.90;;;;;;5077932;28;20036;-37
2023/01/29 07:39:58;;;;;;;34.50;24.40;;;3.40;99.90;;;;;;5077437;28;20377;-36
2023/01/29 07:42:24;;;;;;;32.70;23.10;;;3.40;99.90;;;;;;5059215;28;20043;-36
2023/01/29 07:44:50;;;;;;;34.13;23.85;;;3.40;99.90;;;;;;5059673;28;20066;-37
2023/01/29 07:47:16;;;;;;;32.30;22.48;;;3.40;99.90;;;;;;5080423;28;20050;-37
2023/01/29 07:49:41;;;;;;;32.10;23.65;;;3.40;99.90;;;;;;5080113;28;20036;-37
2023/01/29 07:52:07;;;;;;;33.70;23.27;;;3.40;99.90;;;;;;5083270;28;20035;-37
2023/01/29 07:54:33;;;;;;;36.75;24.92;;;3.40;99.90;;;;;;5081168;28;20032;-37
2023/01/29 07:56:59;;;;;;;39.88;25.90;;;3.40;99.90;;;;;;5084068;27;20040;-37
2023/01/29 07:59:24;;;;;;;36.22;23.52;;;3.40;99.90;;;;;;5089989;28;20028;-37
2023/01/29 08:01:50;;;;;;;29.77;21.00;;;3.40;99.90;;;;;;5077319;28;20038;-36
2023/01/29 08:04:16;;;;;;;33.83;23.45;;;3.40;99.90;;;;;;5084736;28;20067;-37
2023/01/29 08:06:41;;;;;;;34.15;24.27;;;3.40;99.90;;;;;;5088224;28;20496;-36
2023/01/29 08:09:07;;;;;;;36.30;24.95;;;3.50;99.90;;;;;;5084016;28;20035;-36
2023/01/29 08:11:33;;;;;;;34.45;24.73;;;3.50;99.90;;;;;;5093886;28;20515;-37
2023/01/29 08:13:59;;;;;;;31.92;23.20;;;3.50;99.90;;;;;;5084963;28;20126;-36
2023/01/29 08:16:25;;;;;;;33.83;24.08;;;3.50;99.90;;;;;;5091237;28;20114;-37
2023/01/29 08:18:50;;;;;;;34.33;23.80;;;3.50;99.90;;;;;;5094172;28;20031;-37
2023/01/29 08:21:16;;;;;;;33.22;23.88;;;3.50;99.90;;;;;;5092994;28;20043;-36
2023/01/29 08:23:42;;;;;;;34.88;25.08;;;3.50;99.90;;;;;;5089232;28;20508;-37
2023/01/29 08:26:08;;;;;;;31.83;23.67;;;3.50;99.90;;;;;;5091782;28;20471;-36
2023/01/29 08:28:35;;;;;;;35.25;24.10;;;3.50;99.90;;;;;;5091980;28;20403;-37
2023/01/29 08:31:00;;;;;;;32.45;23.98;;;3.60;99.90;;;;;;5091648;28;20036;-36
2023/01/29 08:33:28;;;;;;;34.20;23.25;;;3.60;99.90;;;;;;5089512;28;20034;-37
2023/01/29 08:35:53;;;;;;;32.92;24.13;;;3.60;99.90;;;;;;5080017;28;20504;-37
2023/01/29 08:38:19;;;;;;;36.95;24.40;;;3.60;99.90;;;;;;5107137;28;20063;-37
2023/01/29 08:40:45;;;;;;;31.17;22.73;;;3.60;99.90;;;;;;5093755;28;20592;-37
2023/01/29 08:43:12;;;;;;;35.30;23.48;;;3.60;99.90;;;;;;5093348;28;20100;-36
2023/01/29 08:45:42;;;;;;;32.75;23.60;;;3.60;99.90;;;;;;5093150;28;20035;-37
2023/01/29 08:48:09;;;;;;;34.60;23.15;;;3.60;99.90;;;;;;5094224;28;20560;-37
2023/01/29 08:50:35;;;;;;;34.70;22.45;;;3.60;99.90;;;;;;5093515;28;20043;-37
2023/01/29 08:53:03;;;;;;;32.00;22.33;;;3.60;99.90;;;;;;5093628;28;20071;-37
2023/01/29 08:55:28;;;;;;;36.25;24.08;;;3.60;99.90;;;;;;5092731;28;20032;-36
2023/01/29 08:57:56;;;;;;;31.80;22.92;;;3.60;99.90;;;;;;5093250;28;20377;-37
2023/01/29 09:00:22;;;;;;;32.47;22.90;;;3.60;99.90;;;;;;5093372;28;20059;-36
2023/01/29 09:02:48;;;;;;;32.60;23.13;;;3.60;99.90;;;;;;5087801;28;20078;-37
2023/01/29 09:05:14;;;;;;;32.97;23.00;;;3.60;99.90;;;;;;5093407;28;20075;-37
2023/01/29 09:07:39;;;;;;;32.75;21.20;;;3.60;99.90;;;;;;5093236;28;20138;-37
2023/01/29 09:10:06;;;;;;;33.17;23.42;;;3.70;99.90;;;;;;5095684;28;20039;-37
2023/01/29 09:12:32;;;;;;;33.10;23.85;;;3.70;99.90;;;;;;5090661;28;20101;-36
2023/01/29 09:14:58;;;;;;;30.90;21.77;;;3.60;99.90;;;;;;5106798;28;20048;-37
2023/01/29 09:17:24;;;;;;;36.83;23.83;;;3.60;99.90;;;;;;5090682;28;20031;-37
2023/01/29 09:19:51;;;;;;;30.30;22.48;;;3.60;99.90;;;;;;5093325;28;20042;-37
2023/01/29 09:22:18;;;;;;;33.15;23.95;;;3.70;99.90;;;;;;5092991;28;20126;-37
2023/01/29 09:24:43;;;;;;;34.92;24.10;;;3.70;99.90;;;;;;5075461;28;20111;-37
2023/01/29 09:27:09;;;;;;;34.35;23.23;;;3.70;99.90;;;;;;5088688;28;20178;-37
2023/01/29 09:29:36;;;;;;;32.17;24.17;;;3.80;99.90;;;;;;5092663;28;20043;-37
2023/01/29 09:32:03;;;;;;;33.78;24.33;;;3.80;99.90;;;;;;5093080;28;20515;-36
2023/01/29 09:34:29;;;;;;;30.85;22.52;;;3.80;99.90;;;;;;5088420;28;20033;-37
2023/01/29 09:36:55;;;;;;;33.28;23.25;;;3.90;99.90;;;;;;5082057;28;20046;-37
2023/01/29 09:39:21;;;;;;;32.88;23.42;;;3.90;99.90;;;;;;5087564;28;20032;-37
2023/01/29 09:42:00;;;;;;;31.95;23.30;;;3.90;99.90;;;;;;5074298;28;20035;-38
2023/01/29 09:44:46;;;;;;;30.88;21.63;;;4.00;99.90;;;;;;5086509;28;20530;-37
2023/01/29 09:47:15;;;;;;;30.25;23.00;;;4.00;99.90;;;;;;5088410;28;20039;-41
2023/01/29 09:49:48;;;;;;;33.25;22.88;;;4.00;99.90;;;;;;5107768;28;20035;-38
2023/01/29 09:52:29;;;;;;;30.05;22.85;;;4.00;99.90;;;;;;5092957;28;20031;-37
2023/01/29 09:55:25;;;;;;;33.58;24.55;;;4.10;99.90;;;;;;5089238;28;20036;-37
2023/01/29 09:57:56;;;;;;;29.63;23.02;;;4.10;99.90;;;;;;5087306;28;20504;-38
2023/01/29 10:00:24;;;;;;;34.65;23.65;;;4.20;99.90;;;;;;5086550;28;20024;-37
2023/01/29 10:03:05;;;;;;;31.60;23.27;;;4.30;99.90;;;;;;5110207;28;20040;-37
2023/01/29 10:05:42;;;;;;;32.80;24.23;;;4.40;99.90;;;;;;5087597;28;20126;-38
2023/01/29 10:08:23;;;;;;;31.95;23.65;;;4.50;99.90;;;;;;5096222;28;20034;-37
2023/01/29 10:11:01;;;;;;;35.10;24.27;;;4.50;99.90;;;;;;5093594;28;20039;-37
2023/01/29 10:13:45;;;;;;;31.05;22.75;;;4.60;99.90;;;;;;5078915;28;20031;-38
2023/01/29 10:16:41;;;;;;;32.22;24.05;;;4.70;99.90;;;;;;5093314;28;20096;-37
2023/01/29 10:19:18;;;;;;;34.55;25.48;;;4.80;99.90;;;;;;5093784;28;20140;-38
2023/01/29 10:22:05;;;;;;;39.40;28.40;;;4.80;99.90;;;;;;5095897;28;20032;-38
2023/01/29 10:24:45;;;;;;;34.17;25.00;;;4.80;99.90;;;;;;5093521;28;20040;-38
2023/01/29 10:27:14;;;;;;;35.70;25.77;;;4.80;99.90;;;;;;5094897;28;20032;-38
2023/01/29 10:29:42;;;;;;;38.13;27.73;;;4.70;99.90;;;;;;5096207;28;20042;-38
2023/01/29 10:32:17;;;;;;;33.85;24.70;;;4.70;99.90;;;;;;5093634;28;20028;-38
2023/01/29 10:34:47;;;;;;;31.88;23.45;;;4.70;99.90;;;;;;5107724;28;20036;-38
2023/01/29 10:37:34;;;;;;;34.75;24.65;;;4.70;99.90;;;;;;5093866;28;20361;-38
2023/01/29 10:40:00;;;;;;;34.55;23.95;;;4.70;99.90;;;;;;5094318;28;20492;-38
2023/01/29 10:42:33;;;;;;;31.08;22.70;;;4.80;99.90;;;;;;5095784;28;20088;-38
2023/01/29 10:45:36;;;;;;;30.48;21.67;;;4.80;99.90;;;;;;5095801;28;20043;-37
2023/01/29 10:48:14;;;;;;;34.25;25.13;;;4.70;99.90;;;;;;5070854;28;20446;-37
2023/01/29 10:50:46;;;;;;;38.88;27.70;;;4.80;99.90;;;;;;5095551;28;20041;-38
2023/01/29 10:53:17;;;;;;;41.13;29.02;;;4.80;99.90;;;;;;5094899;28;20032;-37
2023/01/29 10:56:27;;;;;;;34.92;23.50;;;4.80;99.90;;;;;;5095795;28;20035;-38
2023/01/29 10:58:58;;;;;;;35.15;24.65;;;4.80;99.90;;;;;;5010515;28;20056;-38
2023/01/29 11:01:25;;;;;;;41.28;26.95;;;4.80;99.90;;;;;;5010176;28;20376;-38
2023/01/29 11:03:57;;;;;;;39.10;26.90;;;4.90;99.90;;;;;;5048504;28;20408;-38
2023/01/29 11:06:31;;;;;;;35.90;24.98;;;4.90;99.90;;;;;;5095789;28;20325;-37
2023/01/29 11:08:56;;;;;;;41.03;26.95;;;5.00;99.90;;;;;;5094518;27;20050;-38
2023/01/29 11:11:35;;;;;;;34.22;25.70;;;5.00;99.90;;;;;;5095148;28;20032;-38
2023/01/29 11:14:06;;;;;;;31.42;23.00;;;5.00;99.90;;;;;;5095725;28;20028;-37
2023/01/29 11:16:45;;;;;;;36.47;26.30;;;5.00;99.90;;;;;;5089082;28;20119;-38
2023/01/29 11:19:11;;;;;;;32.90;24.52;;;5.00;99.90;;;;;;5086180;28;20032;-37
2023/01/29 11:21:58;;;;;;;32.40;23.90;;;5.00;99.90;;;;;;5093104;28;20036;-37
2023/01/29 11:24:24;;;;;;;35.22;25.05;;;5.10;99.90;;;;;;5087411;28;20520;-37
2023/01/29 11:26:53;;;;;;;32.47;25.20;;;5.10;99.90;;;;;;5089649;28;20048;-37
2023/01/29 11:29:40;;;;;;;31.63;24.73;;;5.20;99.90;;;;;;5089525;28;20039;-37
2023/01/29 11:32:11;;;;;;;32.97;24.55;;;5.20;99.90;;;;;;5091459;28;20506;-38
2023/01/29 11:34:56;;;;;;;33.85;22.95;;;5.20;99.90;;;;;;5092887;28;20076;-37
2023/01/29 11:37:22;;;;;;;36.13;24.90;;;5.10;99.90;;;;;;5091901;28;20035;-38
2023/01/29 11:39:49;;;;;;;29.50;21.73;;;5.10;99.90;;;;;;5091214;28;20039;-38
2023/01/29 11:42:22;;;;;;;32.95;23.17;;;5.10;99.90;;;;;;5091127;28;20043;-38
2023/01/29 11:44:48;;;;;;;30.48;22.15;;;5.10;99.90;;;;;;5109155;28;20062;-38
2023/01/29 11:47:22;;;;;;;32.15;23.23;;;5.10;99.90;;;;;;5090264;28;20074;-38
2023/01/29 11:49:48;;;;;;;31.65;22.38;;;5.10;99.90;;;;;;5093732;28;20031;-38
2023/01/29 11:52:18;;;;;;;32.00;22.10;;;5.10;99.90;;;;;;5109923;28;20534;-37
2023/01/29 11:54:53;;;;;;;32.92;23.38;;;5.00;99.90;;;;;;5090979;27;20073;-38
2023/01/29 11:57:39;;;;;;;34.03;25.00;;;5.00;99.90;;;;;;5090409;28;20096;-37
2023/01/29 12:00:16;;;;;;;28.27;21.30;;;5.00;99.90;;;;;;5087243;28;20035;-37
2023/01/29 12:02:54;;;;;;;31.92;24.30;;;4.90;99.90;;;;;;5090122;28;20031;-36
2023/01/29 12:05:23;;;;;;;35.55;25.95;;;5.00;99.90;;;;;;5088231;28;20422;-37
2023/01/29 12:07:54;;;;;;;37.13;25.30;;;5.00;99.90;;;;;;5090085;28;20035;-38
2023/01/29 12:10:35;;;;;;;32.13;24.83;;;5.00;99.90;;;;;;5091964;28;20114;-37
2023/01/29 12:13:18;;;;;;;32.83;22.00;;;5.00;99.90;;;;;;5089511;27;20100;-38
2023/01/29 12:15:46;;;;;;;33.80;25.10;;;5.00;99.90;;;;;;5087311;28;20519;-37
2023/01/29 12:18:35;;;;;;;33.85;25.00;;;5.00;99.90;;;;;;5090187;28;20061;-37
2023/01/29 12:21:03;;;;;;;33.58;24.17;;;5.00;99.90;;;;;;5075095;28;20035;-38
2023/01/29 12:23:40;;;;;;;31.23;23.48;;;5.00;99.90;;;;;;5088111;28;20036;-38
2023/01/29 12:28:43;;;;;;;32.53;22.02;;;4.90;99.90;;;;;;5088575;28;20036;-81
2023/01/29 12:31:37;;;;;;;34.97;23.48;;;4.80;99.90;;;;;;5076012;28;20040;-81
2023/01/29 12:34:18;;;;;;;31.05;23.55;;;4.70;99.90;;;;;;5090781;28;20048;-80
2023/01/29 12:37:00;;;;;;;32.95;23.45;;;4.70;99.90;;;;;;5076230;28;20071;-80
2023/01/29 12:39:26;;;;;;;33.72;23.58;;;4.70;99.90;;;;;;5059451;28;20059;-79
2023/01/29 12:42:22;;;;;;;32.90;23.40;;;4.70;99.90;;;;;;5061128;28;20104;-80
2023/01/29 12:44:58;;;;;;;31.83;23.15;;;4.70;99.90;;;;;;5076502;28;20032;-81
2023/01/29 12:47:32;;;;;;;33.80;23.17;;;4.70;99.90;;;;;;5046778;28;20064;-80
2023/01/29 12:50:05;;;;;;;38.03;25.85;;;4.80;99.90;;;;;;5058407;28;20055;-81
2023/01/29 12:52:44;;;;;;;32.40;23.48;;;4.80;99.90;;;;;;5062742;28;20041;-83
2023/01/29 12:55:28;;;;;;;32.88;23.98;;;4.80;99.90;;;;;;5060173;28;20040;-83
2023/01/29 12:58:34;;;;;;;36.77;24.27;;;4.80;99.90;;;;;;5062238;28;20111;-84
2023/01/29 13:01:36;;;;;;;31.77;23.67;;;4.80;99.90;;;;;;5041091;28;20048;-84
2023/01/29 13:04:05;;;;;;;35.03;23.60;;;4.80;99.90;;;;;;5008415;28;20839;-82
2023/01/29 13:06:54;;;;;;;32.53;22.98;;;4.80;99.90;;;;;;5077868;28;20036;-84
2023/01/29 13:09:27;;;;;;;36.63;25.00;;;4.70;99.90;;;;;;5060310;28;20066;-84
2023/01/29 13:12:01;;;;;;;34.45;24.27;;;4.70;99.90;;;;;;5056501;28;20036;-85
2023/01/29 13:14:45;;;;;;;33.88;24.98;;;4.60;99.90;;;;;;5057514;28;20044;-84
2023/01/29 13:17:20;;;;;;;35.40;25.60;;;4.60;99.90;;;;;;5042428;28;20114;-84
2023/01/29 13:19:51;;;;;;;37.22;25.70;;;4.60;99.90;;;;;;5071990;28;20050;-83
2023/01/29 13:22:29;;;;;;;37.20;24.50;;;4.60;99.90;;;;;;5076623;28;20115;-82
2023/01/29 13:24:57;;;;;;;35.50;25.40;;;4.50;99.90;;;;;;5037212;28;20074;-83
2023/01/29 13:27:32;;;;;;;35.33;25.08;;;4.50;99.90;;;;;;5061490;28;20032;-82
2023/01/29 13:29:59;;;;;;;40.53;25.58;;;4.50;99.90;;;;;;5061733;28;20033;-83
2023/01/29 13:32:30;;;;;;;35.17;25.33;;;4.50;99.90;;;;;;5042925;28;20032;-83
2023/01/29 13:35:03;;;;;;;36.80;26.52;;;4.50;99.90;;;;;;5043329;28;20037;-82
2023/01/29 13:37:31;;;;;;;39.58;25.95;;;4.50;99.90;;;;;;5061019;28;20020;-83